Time;durP1;ratioP1;P1;durP2;ratioP2;P2;SDS_P1;SDS_P2;PMS_P1;PMS_P2;Temp;Humidity;BMP_temperature;BMP_pressure;BME280_temperature;BME280_humidity;BME280_pressure;Samples;Min_cycle;Max_cycle;Signal;HPM_P1;HPM_P2
2023/05/06 00:00:51;;;;;;;18.97;16.97;;;15.30;99.90;;;;;;4995824;28;20524;-87
2023/05/06 00:03:18;;;;;;;16.70;14.90;;;15.40;99.90;;;;;;4996002;28;20175;-87
2023/05/06 00:05:45;;;;;;;19.67;17.60;;;15.40;99.90;;;;;;4995129;28;20175;-87
2023/05/06 00:08:11;;;;;;;17.90;16.03;;;15.40;99.90;;;;;;5011681;28;20452;-87
2023/05/06 00:10:36;;;;;;;25.10;17.00;;;15.40;99.90;;;;;;5014775;28;20407;-82
2023/05/06 00:13:02;;;;;;;18.77;16.70;;;15.40;99.90;;;;;;5017406;28;20885;-88
2023/05/06 00:15:28;;;;;;;18.57;16.57;;;15.30;99.90;;;;;;5014933;28;20542;-87
2023/05/06 00:17:54;;;;;;;19.70;16.87;;;15.30;99.90;;;;;;5022793;28;20427;-87
2023/05/06 00:20:20;;;;;;;20.47;17.27;;;15.30;99.90;;;;;;5018359;28;20273;-87
2023/05/06 00:22:46;;;;;;;17.30;15.50;;;15.40;99.90;;;;;;5013821;28;20178;-85
2023/05/06 00:25:12;;;;;;;17.20;15.40;;;15.40;99.90;;;;;;5014976;28;20734;-85
2023/05/06 00:27:38;;;;;;;16.60;14.90;;;15.40;99.90;;;;;;5015680;28;20439;-83
2023/05/06 00:30:05;;;;;;;16.77;15.13;;;15.40;99.90;;;;;;5018078;28;20534;-86
2023/05/06 00:32:30;;;;;;;17.20;15.50;;;15.30;99.90;;;;;;5028443;28;20243;-86
2023/05/06 00:34:56;;;;;;;15.83;14.40;;;15.30;99.90;;;;;;5030656;28;20535;-86
2023/05/06 00:37:22;;;;;;;15.57;13.97;;;15.30;99.90;;;;;;5035413;28;20204;-86
2023/05/06 00:39:48;;;;;;;16.10;14.30;;;15.30;99.90;;;;;;5031803;28;20185;-86
2023/05/06 00:42:13;;;;;;;17.07;14.40;;;15.30;99.90;;;;;;5026863;28;20525;-86
2023/05/06 00:44:39;;;;;;;16.20;14.50;;;15.20;99.90;;;;;;5026644;28;20258;-83
2023/05/06 00:47:06;;;;;;;21.87;13.93;;;15.20;99.90;;;;;;5035464;28;20200;-85
2023/05/06 00:49:33;;;;;;;17.27;13.50;;;15.20;99.90;;;;;;5036220;28;20170;-85
2023/05/06 00:52:00;;;;;;;15.07;13.50;;;15.10;99.90;;;;;;5036584;28;20456;-86
2023/05/06 00:54:26;;;;;;;14.83;13.43;;;15.00;99.90;;;;;;5020487;28;20431;-86
2023/05/06 00:56:52;;;;;;;13.70;12.40;;;14.90;99.90;;;;;;5014952;28;20454;-88
2023/05/06 00:59:18;;;;;;;14.33;12.80;;;14.80;99.90;;;;;;5015032;28;20403;-88
2023/05/06 01:01:46;;;;;;;14.10;12.70;;;14.80;99.90;;;;;;5015514;28;20463;-86
2023/05/06 01:04:11;;;;;;;14.83;13.37;;;14.80;99.90;;;;;;5015452;28;20452;-86
2023/05/06 01:07:15;;;;;;;14.43;13.03;;;14.80;99.90;;;;;;5014790;28;20463;-82
2023/05/06 01:09:52;;;;;;;12.67;11.50;;;14.80;99.90;;;;;;5017766;28;20180;-83
2023/05/06 01:12:34;;;;;;;13.30;12.10;;;14.80;99.90;;;;;;5001281;28;20482;-88
2023/05/06 01:15:12;;;;;;;13.43;12.13;;;14.70;99.90;;;;;;4995981;28;20402;-87
2023/05/06 01:17:43;;;;;;;12.40;11.20;;;14.70;99.90;;;;;;4994187;28;20418;-80
2023/05/06 01:20:14;;;;;;;10.50;9.57;;;14.70;99.90;;;;;;5005643;28;20910;-86
2023/05/06 01:22:40;;;;;;;11.13;10.10;;;14.70;99.90;;;;;;5013374;28;20386;-80
2023/05/06 01:25:06;;;;;;;11.00;10.00;;;14.60;99.90;;;;;;5012845;28;20422;-86
2023/05/06 01:27:31;;;;;;;12.00;10.80;;;14.60;99.90;;;;;;5012874;28;20430;-86
2023/05/06 01:29:58;;;;;;;11.70;10.60;;;14.50;99.90;;;;;;5012823;28;20423;-85
2023/05/06 01:32:29;;;;;;;12.93;11.63;;;14.50;99.90;;;;;;5013615;28;20287;-87
2023/05/06 01:35:16;;;;;;;12.33;11.03;;;14.50;99.90;;;;;;5012408;28;20914;-86
2023/05/06 01:38:16;;;;;;;12.70;11.50;;;14.40;99.90;;;;;;5012511;28;20408;-86
2023/05/06 01:40:47;;;;;;;12.77;11.57;;;14.40;99.90;;;;;;4990021;28;20485;-82
2023/05/06 01:43:14;;;;;;;12.23;10.93;;;14.40;99.90;;;;;;5013663;28;20403;-87
2023/05/06 01:45:41;;;;;;;12.07;10.97;;;14.30;99.90;;;;;;5013246;28;20501;-81
2023/05/06 01:48:08;;;;;;;10.93;9.83;;;14.30;99.90;;;;;;5012844;28;20406;-87
2023/05/06 01:50:34;;;;;;;14.13;11.60;;;14.30;99.90;;;;;;5012837;28;20460;-87
2023/05/06 01:53:02;;;;;;;14.20;12.77;;;14.20;99.90;;;;;;5012415;28;20422;-86
2023/05/06 01:55:28;;;;;;;15.03;13.07;;;14.20;99.90;;;;;;5012537;28;20444;-87
2023/05/06 01:57:55;;;;;;;14.63;12.80;;;14.20;99.90;;;;;;5011215;28;20442;-86
2023/05/06 02:00:23;;;;;;;16.47;12.60;;;14.20;99.90;;;;;;5012687;28;20403;-87
2023/05/06 02:02:49;;;;;;;15.03;13.43;;;14.20;99.90;;;;;;5012231;28;20422;-86
2023/05/06 02:05:15;;;;;;;15.60;14.00;;;14.20;99.90;;;;;;5012909;28;20418;-86
2023/05/06 02:07:41;;;;;;;14.07;12.77;;;14.20;99.90;;;;;;5013244;28;20465;-80
2023/05/06 02:10:07;;;;;;;15.27;13.30;;;14.20;99.90;;;;;;5007227;28;20214;-86
2023/05/06 02:12:33;;;;;;;14.00;12.60;;;14.10;99.90;;;;;;5010861;28;20665;-86
2023/05/06 02:14:59;;;;;;;15.03;13.40;;;14.20;99.90;;;;;;5007208;28;20440;-86
2023/05/06 02:17:25;;;;;;;13.07;11.37;;;14.10;99.90;;;;;;5011583;28;20225;-87
2023/05/06 02:19:51;;;;;;;13.70;11.97;;;14.10;99.90;;;;;;5012102;28;20182;-87
2023/05/06 02:22:16;;;;;;;14.73;13.23;;;14.10;99.90;;;;;;5011766;28;20438;-87
2023/05/06 02:24:42;;;;;;;13.70;12.37;;;14.10;99.90;;;;;;5012838;28;20410;-81
2023/05/06 02:27:08;;;;;;;14.30;12.53;;;14.10;99.90;;;;;;5012315;28;20644;-87
2023/05/06 02:29:33;;;;;;;14.50;12.80;;;14.10;99.90;;;;;;5011857;28;20673;-87
2023/05/06 02:31:59;;;;;;;17.70;12.83;;;14.10;99.90;;;;;;5012251;28;20181;-86
2023/05/06 02:34:25;;;;;;;20.30;12.97;;;14.10;99.90;;;;;;5012662;28;20221;-86
2023/05/06 02:36:51;;;;;;;28.23;13.30;;;14.10;99.90;;;;;;5010609;28;20674;-86
2023/05/06 02:39:16;;;;;;;18.23;14.13;;;14.00;99.90;;;;;;5011418;28;20257;-86
2023/05/06 02:41:42;;;;;;;13.30;12.03;;;14.00;99.90;;;;;;5011994;28;20176;-81
2023/05/06 02:44:08;;;;;;;13.73;12.20;;;14.00;99.90;;;;;;5012045;28;20179;-85
2023/05/06 02:46:33;;;;;;;16.10;12.67;;;14.00;99.90;;;;;;5012502;28;20171;-86
2023/05/06 02:49:00;;;;;;;14.10;12.60;;;13.90;99.90;;;;;;5011748;28;20646;-87
2023/05/06 02:51:25;;;;;;;14.10;12.70;;;14.00;99.90;;;;;;5012603;28;20638;-86
2023/05/06 02:53:51;;;;;;;13.07;11.60;;;13.90;99.90;;;;;;5012199;28;20411;-86
2023/05/06 02:56:17;;;;;;;14.70;13.13;;;13.90;99.90;;;;;;5012384;28;20660;-84
2023/05/06 02:58:43;;;;;;;15.37;13.87;;;13.90;99.90;;;;;;5011554;28;20176;-79
2023/05/06 03:01:08;;;;;;;20.60;14.03;;;13.90;99.90;;;;;;5012072;28;20202;-84
2023/05/06 03:03:34;;;;;;;29.33;13.00;;;13.90;99.90;;;;;;5011789;28;20175;-86
2023/05/06 03:06:00;;;;;;;18.93;13.90;;;13.90;99.90;;;;;;5011725;28;20318;-87
2023/05/06 03:08:26;;;;;;;16.70;14.50;;;13.80;99.90;;;;;;5011290;28;20619;-85
2023/05/06 03:10:51;;;;;;;22.90;13.97;;;13.80;99.90;;;;;;5010583;28;20175;-84
2023/05/06 03:13:17;;;;;;;14.03;12.63;;;13.80;99.90;;;;;;5011353;28;20173;-86
2023/05/06 03:15:43;;;;;;;13.37;11.10;;;13.80;99.90;;;;;;5012281;28;20221;-83
2023/05/06 03:18:09;;;;;;;12.13;10.80;;;13.80;99.90;;;;;;5019129;28;20258;-88
2023/05/06 03:20:35;;;;;;;11.13;10.00;;;13.70;99.90;;;;;;5016457;28;20417;-88
2023/05/06 03:23:00;;;;;;;10.40;9.50;;;13.60;99.90;;;;;;5015084;28;20178;-86
2023/05/06 03:25:26;;;;;;;9.33;8.53;;;13.70;99.90;;;;;;5014975;28;20254;-86
2023/05/06 03:27:52;;;;;;;12.50;11.30;;;13.60;99.90;;;;;;4995499;28;20184;-86
2023/05/06 03:30:17;;;;;;;11.60;10.50;;;13.50;99.90;;;;;;4996301;28;20187;-85
2023/05/06 03:32:44;;;;;;;13.63;11.83;;;13.50;99.90;;;;;;4996236;28;20616;-85
2023/05/06 03:35:10;;;;;;;15.87;14.20;;;13.50;99.90;;;;;;4995455;28;20187;-86
2023/05/06 03:37:35;;;;;;;12.40;11.20;;;13.50;99.90;;;;;;4995944;28;20804;-87
2023/05/06 03:40:03;;;;;;;17.70;12.77;;;13.50;99.90;;;;;;5012798;28;20436;-86
2023/05/06 03:42:29;;;;;;;15.03;12.83;;;13.50;99.90;;;;;;5014956;28;20523;-86
2023/05/06 03:44:55;;;;;;;19.03;13.67;;;13.50;99.90;;;;;;5014812;28;20454;-86
2023/05/06 03:47:21;;;;;;;15.20;13.20;;;13.50;99.90;;;;;;5015403;28;20500;-87
2023/05/06 03:49:47;;;;;;;16.87;13.50;;;13.40;99.90;;;;;;5013855;28;20422;-80
2023/05/06 03:52:13;;;;;;;25.60;13.10;;;13.40;99.90;;;;;;5015186;28;20169;-85
2023/05/06 03:54:38;;;;;;;31.80;13.70;;;13.40;99.90;;;;;;5014321;28;20202;-84
2023/05/06 03:57:04;;;;;;;21.63;14.40;;;13.30;99.90;;;;;;5014614;28;20209;-88
2023/05/06 03:59:30;;;;;;;28.67;13.60;;;13.30;99.90;;;;;;5015070;28;20182;-87
2023/05/06 04:01:55;;;;;;;18.20;13.60;;;13.20;99.90;;;;;;5014629;28;20197;-86
2023/05/06 04:04:21;;;;;;;15.00;12.00;;;13.10;99.90;;;;;;5015138;28;20296;-85
2023/05/06 04:06:47;;;;;;;27.90;14.10;;;13.20;99.90;;;;;;5014222;28;20224;-80
2023/05/06 04:09:13;;;;;;;17.37;12.60;;;13.20;99.90;;;;;;5011912;28;20443;-85
2023/05/06 04:11:39;;;;;;;31.47;13.50;;;13.10;99.90;;;;;;5015066;28;20174;-89
2023/05/06 04:14:04;;;;;;;31.03;13.37;;;13.20;99.90;;;;;;5014479;28;20181;-85
2023/05/06 04:16:30;;;;;;;14.60;11.80;;;13.20;99.90;;;;;;5014845;28;20267;-87
2023/05/06 04:18:56;;;;;;;27.10;12.80;;;13.10;99.90;;;;;;5014118;28;20225;-87
2023/05/06 04:21:22;;;;;;;24.33;13.20;;;13.10;99.90;;;;;;5014709;28;20683;-87
2023/05/06 04:23:47;;;;;;;17.20;13.87;;;13.10;99.90;;;;;;5014922;28;20451;-81
2023/05/06 04:26:13;;;;;;;18.93;13.60;;;13.10;99.90;;;;;;5012807;28;20634;-86
2023/05/06 04:28:39;;;;;;;19.00;13.00;;;13.10;99.90;;;;;;5014855;28;20611;-88
2023/05/06 04:31:07;;;;;;;16.57;12.77;;;13.10;99.90;;;;;;5013648;28;20240;-88
2023/05/06 04:33:33;;;;;;;15.87;14.03;;;13.10;99.90;;;;;;5014404;28;20780;-88
2023/05/06 04:35:59;;;;;;;16.83;12.53;;;13.20;99.90;;;;;;5011967;28;20556;-88
2023/05/06 04:38:29;;;;;;;18.80;12.53;;;13.20;99.90;;;;;;5005127;28;20490;-88
2023/05/06 04:40:55;;;;;;;19.63;12.60;;;13.20;99.90;;;;;;4994169;28;20444;-87
2023/05/06 04:43:21;;;;;;;23.53;12.30;;;13.20;99.90;;;;;;4994819;28;20424;-88
2023/05/06 04:45:49;;;;;;;15.00;11.93;;;13.20;99.90;;;;;;4994803;28;20897;-87
2023/05/06 04:48:18;;;;;;;24.00;13.03;;;13.30;99.90;;;;;;4994293;28;20179;-88
2023/05/06 04:50:45;;;;;;;18.43;12.23;;;13.20;99.90;;;;;;4994419;28;20454;-88
2023/05/06 04:53:12;;;;;;;22.13;12.80;;;13.30;99.90;;;;;;4993911;28;20505;-89
2023/05/06 04:55:38;;;;;;;16.03;11.90;;;13.30;99.90;;;;;;4994637;28;20504;-89
2023/05/06 04:58:04;;;;;;;17.43;13.30;;;13.30;99.90;;;;;;4993779;28;20418;-89
2023/05/06 05:00:29;;;;;;;28.57;14.20;;;13.30;99.90;;;;;;4994641;28;20183;-89
2023/05/06 05:02:55;;;;;;;19.13;13.80;;;13.30;99.90;;;;;;5002027;28;20265;-89
2023/05/06 05:05:23;;;;;;;15.53;13.40;;;13.30;99.90;;;;;;5014151;28;20678;-89
2023/05/06 05:07:49;;;;;;;22.03;13.53;;;13.40;99.90;;;;;;5012839;28;20203;-90
2023/05/06 05:10:14;;;;;;;21.73;13.30;;;13.40;99.90;;;;;;5012326;28;20996;-90
2023/05/06 05:12:40;;;;;;;26.77;13.60;;;13.50;99.90;;;;;;5013887;28;20190;-90
2023/05/06 05:15:06;;;;;;;29.87;14.77;;;13.50;99.90;;;;;;5013022;28;20413;-88
2023/05/06 05:17:32;;;;;;;21.63;14.90;;;13.50;99.90;;;;;;5013749;28;20209;-89
2023/05/06 05:19:58;;;;;;;19.23;13.80;;;13.50;99.90;;;;;;5012706;28;20417;-88
2023/05/06 05:22:23;;;;;;;17.50;14.20;;;13.50;99.90;;;;;;5013583;28;20182;-91
2023/05/06 05:24:49;;;;;;;23.40;12.50;;;13.60;99.90;;;;;;5013483;28;20657;-89
2023/05/06 05:27:15;;;;;;;25.23;14.93;;;13.60;99.90;;;;;;5012133;28;20682;-91
2023/05/06 05:29:40;;;;;;;21.97;15.20;;;13.60;99.90;;;;;;5012790;28;20209;-90
2023/05/06 05:32:06;;;;;;;32.00;15.07;;;13.70;99.90;;;;;;5012736;28;20225;-89
2023/05/06 05:34:32;;;;;;;23.50;15.70;;;13.60;99.90;;;;;;5013465;28;20261;-88
2023/05/06 05:36:58;;;;;;;17.73;14.37;;;13.20;99.90;;;;;;5011707;28;20204;-87
2023/05/06 05:39:24;;;;;;;19.00;14.17;;;13.20;99.90;;;;;;5011522;28;20549;-88
2023/05/06 05:41:49;;;;;;;20.67;14.20;;;13.30;99.90;;;;;;5013376;28;20532;-88
2023/05/06 05:44:15;;;;;;;17.80;14.40;;;13.30;99.90;;;;;;5011776;28;21265;-87
2023/05/06 05:46:41;;;;;;;20.67;14.07;;;13.40;99.90;;;;;;5012376;28;20588;-87
2023/05/06 05:49:07;;;;;;;18.33;14.60;;;13.50;99.90;;;;;;5012460;28;20232;-87
2023/05/06 05:51:33;;;;;;;19.40;14.20;;;13.50;99.90;;;;;;5013000;28;20457;-87
2023/05/06 05:53:59;;;;;;;20.30;14.17;;;13.50;99.90;;;;;;5012584;28;20174;-88
2023/05/06 05:56:24;;;;;;;20.40;15.27;;;13.60;99.90;;;;;;5012342;28;20215;-87
2023/05/06 05:58:50;;;;;;;19.50;14.03;;;13.60;99.90;;;;;;5013167;28;20261;-87
2023/05/06 06:01:16;;;;;;;19.10;13.57;;;13.70;99.90;;;;;;5009665;28;20429;-88
2023/05/06 06:03:42;;;;;;;24.37;14.27;;;13.80;99.90;;;;;;5013074;28;20237;-88
2023/05/06 06:06:09;;;;;;;18.00;14.07;;;13.80;99.90;;;;;;5012617;28;20407;-88
2023/05/06 06:08:35;;;;;;;18.90;14.23;;;13.90;99.90;;;;;;5012738;28;20430;-88
2023/05/06 06:11:02;;;;;;;16.77;13.50;;;14.00;99.90;;;;;;5010948;28;20414;-87
2023/05/06 06:13:29;;;;;;;17.97;13.93;;;14.00;99.90;;;;;;5011526;28;20893;-88
2023/05/06 06:15:57;;;;;;;20.97;15.90;;;14.10;99.90;;;;;;5011248;28;20462;-81
2023/05/06 06:18:23;;;;;;;18.70;15.40;;;14.10;99.90;;;;;;5012768;28;20766;-88
2023/05/06 06:20:49;;;;;;;18.63;14.97;;;14.10;99.90;;;;;;5016252;28;20440;-87
2023/05/06 06:23:15;;;;;;;19.23;15.00;;;14.10;99.90;;;;;;5013879;28;20486;-87
2023/05/06 06:25:41;;;;;;;18.40;14.80;;;14.10;99.90;;;;;;5015417;28;20456;-86
2023/05/06 06:28:07;;;;;;;17.20;14.33;;;14.20;99.90;;;;;;5016916;28;20239;-86
2023/05/06 06:30:32;;;;;;;15.63;13.37;;;14.30;99.90;;;;;;5011241;28;20187;-86
2023/05/06 06:33:00;;;;;;;19.53;14.80;;;14.30;99.90;;;;;;5012981;28;20180;-85
2023/05/06 06:35:26;;;;;;;18.17;14.83;;;14.40;99.90;;;;;;5006108;28;20176;-87
2023/05/06 06:37:52;;;;;;;17.33;14.07;;;14.40;99.90;;;;;;4999612;28;20437;-86
2023/05/06 06:40:19;;;;;;;20.77;15.30;;;14.50;99.90;;;;;;5006814;28;20435;-77
2023/05/06 06:42:45;;;;;;;17.40;15.17;;;14.50;99.90;;;;;;5009623;28;20480;-76
2023/05/06 06:45:12;;;;;;;17.57;13.60;;;14.50;99.90;;;;;;4996380;28;20436;-76
2023/05/06 06:47:38;;;;;;;16.47;14.00;;;14.50;99.90;;;;;;5008151;28;20435;-77
2023/05/06 06:50:05;;;;;;;18.87;14.17;;;14.60;99.90;;;;;;5011933;28;20447;-80
2023/05/06 06:52:31;;;;;;;16.67;14.57;;;14.70;99.90;;;;;;5011349;28;20182;-78
2023/05/06 06:54:57;;;;;;;15.47;13.70;;;14.70;99.90;;;;;;5011758;28;20527;-80
2023/05/06 06:57:23;;;;;;;14.77;13.07;;;14.70;99.90;;;;;;5007886;28;20547;-81
2023/05/06 06:59:51;;;;;;;14.10;12.60;;;14.80;99.90;;;;;;5002635;28;20189;-83
2023/05/06 07:02:17;;;;;;;65.77;44.77;;;14.90;99.90;;;;;;4995927;28;20176;-80
2023/05/06 07:04:42;;;;;;;17.67;15.33;;;14.90;99.90;;;;;;5006950;28;20766;-77
2023/05/06 07:07:08;;;;;;;14.70;12.30;;;14.90;99.90;;;;;;5015747;28;20201;-77
2023/05/06 07:09:34;;;;;;;14.73;13.20;;;14.90;99.90;;;;;;5015445;28;20561;-77
2023/05/06 07:12:00;;;;;;;16.10;14.40;;;15.00;99.90;;;;;;5015616;28;20276;-77
2023/05/06 07:14:26;;;;;;;14.10;12.80;;;15.00;99.90;;;;;;5016219;28;20421;-77
2023/05/06 07:16:52;;;;;;;13.90;12.60;;;15.10;99.90;;;;;;5011052;28;20452;-82
2023/05/06 07:19:17;;;;;;;15.93;13.17;;;15.20;99.90;;;;;;5007958;28;20273;-83
2023/05/06 07:21:43;;;;;;;14.57;13.07;;;15.30;99.90;;;;;;5009924;28;20194;-82
2023/05/06 07:24:11;;;;;;;15.67;13.00;;;15.40;99.90;;;;;;5015048;28;20228;-82
2023/05/06 07:26:37;;;;;;;15.50;13.40;;;15.50;99.90;;;;;;5015877;28;20182;-82
2023/05/06 07:29:03;;;;;;;14.03;12.63;;;15.70;99.90;;;;;;5009335;28;20418;-76
2023/05/06 07:31:31;;;;;;;14.47;13.03;;;15.80;99.90;;;;;;5015816;28;20565;-77
2023/05/06 07:33:57;;;;;;;17.07;14.20;;;15.90;99.90;;;;;;5015720;28;20410;-77
2023/05/06 07:36:23;;;;;;;14.17;12.87;;;16.00;99.90;;;;;;5015396;28;20536;-77
2023/05/06 07:38:49;;;;;;;15.03;13.63;;;16.10;99.90;;;;;;5014435;28;20916;-76
2023/05/06 07:41:15;;;;;;;14.00;12.53;;;16.20;99.90;;;;;;5011483;28;20426;-76
2023/05/06 07:43:41;;;;;;;14.10;12.70;;;16.30;99.90;;;;;;5006583;28;20194;-77
2023/05/06 07:46:07;;;;;;;14.07;12.37;;;16.40;99.90;;;;;;5009399;28;20266;-75
2023/05/06 07:48:32;;;;;;;14.43;12.87;;;16.50;99.90;;;;;;5011524;28;20992;-78
2023/05/06 07:50:59;;;;;;;15.20;13.80;;;16.60;99.90;;;;;;5015497;28;20449;-74
2023/05/06 07:53:25;;;;;;;14.30;12.80;;;16.70;99.90;;;;;;5011750;28;20187;-74
2023/05/06 07:55:54;;;;;;;13.87;12.47;;;16.80;99.90;;;;;;5009043;28;20457;-75
2023/05/06 07:58:20;;;;;;;15.67;14.07;;;17.00;99.90;;;;;;5014756;28;21116;-75
2023/05/06 08:00:46;;;;;;;14.97;13.53;;;17.10;99.90;;;;;;5015457;28;20496;-82
2023/05/06 08:03:11;;;;;;;104.53;75.03;;;17.20;99.90;;;;;;5015161;28;20177;-78
2023/05/06 08:05:37;;;;;;;272.83;180.73;;;17.30;99.90;;;;;;5014395;28;20488;-76
2023/05/06 08:08:04;;;;;;;17.90;15.70;;;17.50;99.90;;;;;;5013712;28;20217;-74
2023/05/06 08:10:30;;;;;;;18.50;14.47;;;17.60;99.90;;;;;;5009342;28;20619;-84
2023/05/06 08:12:55;;;;;;;14.77;13.37;;;17.90;99.90;;;;;;5007470;28;20421;-81
2023/05/06 08:15:21;;;;;;;15.03;13.63;;;18.10;99.90;;;;;;5014230;28;20414;-80
2023/05/06 08:17:47;;;;;;;13.80;12.40;;;18.30;99.90;;;;;;5015128;28;20665;-79
2023/05/06 08:20:13;;;;;;;16.27;13.40;;;18.50;99.90;;;;;;5013990;28;20182;-80
2023/05/06 08:22:39;;;;;;;15.27;13.73;;;18.70;99.90;;;;;;5002345;28;20180;-80
2023/05/06 08:25:05;;;;;;;14.30;12.87;;;19.00;99.90;;;;;;4995101;28;20176;-79
2023/05/06 08:27:31;;;;;;;13.17;12.00;;;19.20;99.90;;;;;;4995200;28;20764;-81
2023/05/06 08:29:57;;;;;;;13.40;12.20;;;19.40;99.90;;;;;;5006748;28;20426;-81
2023/05/06 08:32:22;;;;;;;13.73;12.43;;;19.50;99.90;;;;;;5012875;28;20174;-80
2023/05/06 08:34:48;;;;;;;12.63;11.53;;;19.60;99.90;;;;;;5012318;28;20193;-80
2023/05/06 08:37:14;;;;;;;13.80;12.47;;;19.80;99.90;;;;;;5013458;28;20287;-80
2023/05/06 08:39:39;;;;;;;12.80;11.70;;;20.00;99.90;;;;;;5009161;28;20187;-80
2023/05/06 08:42:10;;;;;;;12.17;10.90;;;20.10;99.90;;;;;;5008347;28;20182;-79
2023/05/06 08:44:37;;;;;;;12.37;11.27;;;20.30;99.90;;;;;;5005666;28;20221;-83
2023/05/06 08:47:03;;;;;;;13.57;12.37;;;20.50;99.90;;;;;;5008711;28;20958;-78
2023/05/06 08:49:29;;;;;;;10.17;9.27;;;20.80;99.90;;;;;;5013874;28;20430;-84
2023/05/06 08:51:56;;;;;;;9.90;9.00;;;20.90;99.90;;;;;;5013970;28;20549;-79
2023/05/06 08:54:25;;;;;;;7.50;6.97;;;21.10;99.90;;;;;;5013415;28;20422;-79
2023/05/06 08:56:53;;;;;;;8.50;7.90;;;21.30;99.90;;;;;;5014113;28;20480;-80
2023/05/06 08:59:24;;;;;;;9.13;8.33;;;21.50;99.90;;;;;;5017062;28;20427;-80
2023/05/06 09:01:50;;;;;;;8.97;8.27;;;21.80;99.90;;;;;;5007815;28;20428;-80
2023/05/06 09:04:17;;;;;;;9.23;8.43;;;21.90;99.90;;;;;;5005841;28;20933;-78
2023/05/06 09:06:43;;;;;;;9.20;8.37;;;22.00;99.90;;;;;;5014206;28;20410;-79
2023/05/06 09:09:09;;;;;;;9.87;9.07;;;22.20;99.90;;;;;;5011380;28;20465;-80
2023/05/06 09:11:37;;;;;;;39.53;28.47;;;22.30;99.90;;;;;;5002640;28;20191;-81
2023/05/06 09:14:16;;;;;;;168.93;135.90;;;22.40;99.90;;;;;;4998954;28;20180;-80
2023/05/06 09:16:44;;;;;;;13.50;12.33;;;22.60;99.90;;;;;;5010238;28;21016;-76
2023/05/06 09:19:11;;;;;;;9.23;8.33;;;22.80;99.90;;;;;;5012035;28;20422;-75
2023/05/06 09:21:42;;;;;;;8.60;7.83;;;22.80;98.50;;;;;;5013158;28;20921;-75
2023/05/06 09:24:10;;;;;;;8.33;7.73;;;22.60;98.10;;;;;;5011917;28;20410;-77
2023/05/06 09:26:39;;;;;;;7.83;7.23;;;22.60;96.50;;;;;;5003092;28;20439;-74
2023/05/06 09:29:05;;;;;;;7.90;7.30;;;22.70;99.90;;;;;;4993533;28;20410;-72
2023/05/06 09:31:32;;;;;;;7.00;6.50;;;22.90;99.90;;;;;;4993851;28;20426;-76
2023/05/06 09:33:59;;;;;;;7.07;6.57;;;23.00;99.90;;;;;;5001037;28;20513;-75
2023/05/06 09:36:27;;;;;;;6.23;5.73;;;23.10;98.20;;;;;;5012666;28;20603;-82
2023/05/06 09:38:54;;;;;;;7.37;6.77;;;23.10;96.40;;;;;;5013622;28;20437;-75
2023/05/06 09:41:21;;;;;;;6.40;6.00;;;23.10;95.20;;;;;;4997237;28;20789;-77
2023/05/06 09:43:48;;;;;;;6.23;5.83;;;22.90;95.60;;;;;;5002444;28;20433;-75
2023/05/06 09:46:15;;;;;;;5.67;5.37;;;23.00;96.20;;;;;;5012940;28;20425;-74
2023/05/06 09:48:41;;;;;;;6.70;6.20;;;23.20;96.20;;;;;;5013620;28;20828;-78
2023/05/06 09:51:07;;;;;;;5.83;5.47;;;23.30;97.70;;;;;;5012674;28;20512;-77
2023/05/06 09:53:36;;;;;;;6.20;5.77;;;23.40;96.00;;;;;;5011754;28;20414;-79
2023/05/06 09:56:06;;;;;;;5.90;5.47;;;23.30;95.20;;;;;;4995761;28;20525;-78
2023/05/06 09:58:36;;;;;;;217.07;176.00;;;23.50;96.00;;;;;;4994050;28;20410;-77
2023/05/06 10:01:03;;;;;;;130.33;81.27;;;23.80;95.50;;;;;;4996174;28;20422;-77
2023/05/06 10:03:30;;;;;;;79.53;62.53;;;24.00;93.70;;;;;;5011942;28;20410;-77
2023/05/06 10:05:59;;;;;;;5.60;5.20;;;24.20;91.80;;;;;;5013483;28;20454;-78
2023/05/06 10:08:25;;;;;;;5.23;4.83;;;24.30;87.70;;;;;;5000285;28;20964;-78
2023/05/06 10:10:52;;;;;;;4.87;4.53;;;24.50;90.40;;;;;;4997380;28;20472;-78
2023/05/06 10:13:20;;;;;;;6.40;5.87;;;24.60;90.00;;;;;;5012463;28;20402;-77
2023/05/06 10:15:48;;;;;;;8.23;7.57;;;24.50;89.10;;;;;;5010149;28;20956;-79
2023/05/06 10:18:20;;;;;;;7.43;6.83;;;24.70;92.20;;;;;;5007849;28;20516;-78
2023/05/06 10:20:48;;;;;;;7.13;6.53;;;24.70;92.40;;;;;;5009574;28;20496;-75
2023/05/06 10:23:32;;;;;;;5.30;5.00;;;24.60;92.40;;;;;;5008989;28;20418;-75
2023/05/06 10:26:06;;;;;;;5.40;5.10;;;24.50;88.90;;;;;;5009794;28;20416;-75
2023/05/06 10:28:45;;;;;;;7.20;6.70;;;24.40;90.00;;;;;;5008972;28;20540;-76
2023/05/06 10:31:12;;;;;;;86.67;75.23;;;24.40;91.60;;;;;;5010169;28;20425;-75
2023/05/06 10:33:46;;;;;;;78.57;69.43;;;24.40;91.00;;;;;;5011515;28;20410;-76
2023/05/06 10:36:21;;;;;;;6.93;6.27;;;24.40;92.30;;;;;;5012425;28;20438;-73
2023/05/06 10:38:55;;;;;;;5.70;5.30;;;24.20;91.30;;;;;;5011693;28;20417;-75
2023/05/06 10:41:24;;;;;;;5.20;4.90;;;24.10;92.30;;;;;;5011240;28;20398;-75
2023/05/06 10:43:55;;;;;;;5.63;5.33;;;23.90;91.50;;;;;;5012623;28;20477;-75
2023/05/06 10:46:22;;;;;;;5.90;5.50;;;23.80;89.80;;;;;;5009493;28;20920;-75
2023/05/06 10:49:12;;;;;;;5.33;5.00;;;23.40;90.10;;;;;;5009877;28;20477;-75
2023/05/06 10:51:41;;;;;;;5.07;4.77;;;23.10;91.80;;;;;;5012988;28;20450;-75
2023/05/06 10:54:27;;;;;;;5.50;5.00;;;22.90;92.00;;;;;;5018262;28;20430;-76
2023/05/06 10:56:53;;;;;;;5.13;4.73;;;22.80;93.10;;;;;;4992779;28;20446;-76
2023/05/06 10:59:28;;;;;;;5.20;4.90;;;22.60;94.20;;;;;;4992335;28;20430;-76
2023/05/06 11:02:03;;;;;;;5.43;4.93;;;22.40;95.70;;;;;;4993242;28;20167;-74
2023/05/06 11:04:30;;;;;;;5.43;5.03;;;22.30;95.50;;;;;;5006187;28;20425;-84
2023/05/06 11:07:07;;;;;;;5.00;4.67;;;22.40;96.70;;;;;;5011189;28;20495;-82
2023/05/06 11:09:52;;;;;;;110.03;77.87;;;22.50;95.70;;;;;;5000816;28;20426;-74
2023/05/06 11:12:19;;;;;;;19.07;17.23;;;22.50;95.30;;;;;;5006682;28;20514;-82
2023/05/06 11:14:45;;;;;;;4.97;4.67;;;22.60;93.70;;;;;;5010472;28;20426;-78
2023/05/06 11:17:29;;;;;;;4.37;4.07;;;22.60;94.20;;;;;;5009227;28;20524;-75
2023/05/06 11:20:18;;;;;;;4.70;4.30;;;22.40;91.80;;;;;;5011590;28;20159;-75
2023/05/06 11:22:44;;;;;;;4.70;4.30;;;22.30;92.40;;;;;;5011590;28;20517;-76
2023/05/06 11:25:10;;;;;;;4.07;3.77;;;22.10;93.90;;;;;;5011606;28;20409;-73
2023/05/06 11:27:36;;;;;;;4.40;3.87;;;22.10;94.80;;;;;;5010345;28;20882;-76
2023/05/06 11:30:05;;;;;;;4.03;3.87;;;22.00;94.40;;;;;;5009052;28;20516;-75
2023/05/06 11:32:32;;;;;;;4.40;4.10;;;22.20;95.90;;;;;;5006948;28;20435;-74
2023/05/06 11:34:58;;;;;;;5.10;4.70;;;22.30;93.10;;;;;;5008621;28;20410;-75
2023/05/06 11:37:28;;;;;;;4.83;4.53;;;22.20;91.90;;;;;;5007899;28;20971;-75
2023/05/06 11:39:54;;;;;;;4.77;4.37;;;22.10;92.30;;;;;;5006905;28;20183;-79
2023/05/06 11:42:25;;;;;;;4.40;4.13;;;22.00;91.60;;;;;;5004748;28;20498;-78
2023/05/06 11:44:56;;;;;;;4.53;4.23;;;21.90;90.90;;;;;;4995935;28;20456;-79
2023/05/06 11:47:22;;;;;;;4.67;4.40;;;21.80;92.00;;;;;;4995510;28;20407;-78
2023/05/06 11:49:52;;;;;;;5.20;4.90;;;21.90;92.40;;;;;;5000681;28;20480;-78
2023/05/06 11:52:21;;;;;;;81.27;61.60;;;22.00;94.40;;;;;;5011238;28;20438;-78
2023/05/06 11:54:51;;;;;;;130.27;107.20;;;22.30;95.60;;;;;;5003876;28;20426;-78
2023/05/06 11:57:19;;;;;;;133.87;105.10;;;22.70;95.80;;;;;;5003343;28;20802;-79
2023/05/06 11:59:44;;;;;;;17.90;16.23;;;23.10;94.60;;;;;;5004136;28;20792;-79
2023/05/06 12:02:12;;;;;;;8.17;7.47;;;23.30;91.70;;;;;;5009748;28;20518;-81
2023/05/06 12:04:40;;;;;;;4.33;4.13;;;23.40;91.00;;;;;;5004459;28;20184;-78
2023/05/06 12:07:07;;;;;;;3.60;3.40;;;23.20;88.10;;;;;;5004660;28;20432;-78
2023/05/06 12:09:35;;;;;;;3.70;3.50;;;22.90;82.90;;;;;;5006912;28;20423;-78
2023/05/06 12:12:03;;;;;;;3.30;3.20;;;22.90;85.30;;;;;;5005453;28;20979;-78
2023/05/06 12:14:29;;;;;;;3.70;3.60;;;22.80;85.20;;;;;;5004168;28;20426;-78
2023/05/06 12:16:55;;;;;;;3.77;3.57;;;22.80;87.50;;;;;;5007971;28;20503;-76
2023/05/06 12:19:21;;;;;;;4.30;4.10;;;22.80;84.70;;;;;;5005179;28;20407;-83
2023/05/06 12:21:47;;;;;;;3.77;3.60;;;22.80;85.20;;;;;;5004451;28;20422;-75
2023/05/06 12:24:13;;;;;;;4.00;3.80;;;22.90;87.20;;;;;;5002663;28;20410;-75
2023/05/06 12:26:46;;;;;;;3.67;3.47;;;23.00;85.90;;;;;;5002852;28;20232;-75
2023/05/06 12:29:16;;;;;;;3.67;3.50;;;23.00;85.10;;;;;;5003126;28;20179;-74
2023/05/06 12:31:43;;;;;;;3.80;3.50;;;23.20;85.60;;;;;;5004958;28;20419;-75